Time;durP1;ratioP1;P1;durP2;ratioP2;P2;SDS_P1;SDS_P2;PMS_P1;PMS_P2;Temp;Humidity;BMP_temperature;BMP_pressure;BME280_temperature;BME280_humidity;BME280_pressure;Samples;Min_cycle;Max_cycle;Signal;HPM_P1;HPM_P2
2023/09/28 00:00:34;;;;;;;20.80;19.70;;;;;;;-141.02;74.20;42288.84;5135640;27;20193;-57
2023/09/28 00:02:42;;;;;;;20.27;19.27;;;;;;;-141.02;74.95;42283.09;5135178;27;20199;-57
2023/09/28 00:05:13;;;;;;;20.05;19.05;;;;;;;-141.02;75.87;42273.50;5135166;27;20193;-57
2023/09/28 00:07:40;;;;;;;20.02;19.02;;;;;;;-141.02;76.33;42275.41;5135503;27;20199;-57
2023/09/28 00:10:22;;;;;;;20.20;19.20;;;;;;;-141.02;77.50;42290.78;5135389;27;20218;-57
2023/09/28 00:12:51;;;;;;;19.73;18.73;;;;;;;-141.02;78.42;42306.13;5135055;27;20682;-57
2023/09/28 00:15:19;;;;;;;19.90;18.90;;;;;;;-141.02;79.55;42279.25;5134963;27;20235;-58
2023/09/28 00:17:47;;;;;;;19.80;18.80;;;;;;;-141.02;79.95;42141.06;5135286;27;20281;-57
2023/09/28 00:20:17;;;;;;;19.77;18.77;;;;;;;-141.02;80.57;42277.34;5134611;27;20727;-57
2023/09/28 00:22:45;;;;;;;19.63;18.63;;;;;;;-141.02;81.70;42267.75;5135180;27;20181;-57
2023/09/28 00:25:12;;;;;;;19.92;18.92;;;;;;;-141.02;81.34;42279.25;5134784;27;20235;-57
2023/09/28 00:27:39;;;;;;;19.73;18.73;;;;;;;-141.02;81.85;42022.06;5134938;27;20228;-57
2023/09/28 00:30:09;;;;;;;19.63;18.63;;;;;;;-141.02;81.31;42265.81;5134698;27;20196;-57
2023/09/28 00:32:36;;;;;;;19.45;18.52;;;;;;;-141.02;81.64;42256.22;5134944;27;20200;-57
2023/09/28 00:35:04;;;;;;;19.25;18.35;;;;;;;-141.02;81.74;42258.13;5135034;27;20200;-57
2023/09/28 00:37:30;;;;;;;19.50;18.60;;;;;;;-141.02;82.93;42263.91;5134524;27;20200;-57
2023/09/28 00:39:57;;;;;;;19.33;18.35;;;;;;;-141.02;83.60;42260.06;5134819;27;20212;-57
2023/09/28 00:42:24;;;;;;;18.92;18.02;;;;;;;-141.02;83.67;42242.78;5134424;27;20241;-56
2023/09/28 00:44:51;;;;;;;19.10;18.20;;;;;;;-141.02;83.65;42244.72;5134411;27;20199;-57
2023/09/28 00:47:19;;;;;;;19.02;18.13;;;;;;;-141.02;83.58;42256.22;5134583;27;20351;-57
2023/09/28 00:49:46;;;;;;;18.70;17.80;;;;;;;-141.02;83.22;42260.06;5134229;27;20192;-57
2023/09/28 00:52:16;;;;;;;18.70;17.80;;;;;;;-141.02;83.79;42263.91;5134546;27;20638;-57
2023/09/28 00:54:44;;;;;;;18.75;17.85;;;;;;;-141.02;83.40;42237.03;5134505;27;20272;-57
2023/09/28 01:00:34;;;;;;;18.50;17.60;;;;;;;-141.02;81.96;42231.28;5134143;27;20653;-57
2023/09/28 01:03:02;;;;;;;18.85;17.95;;;;;;;-141.02;80.57;42194.81;5134056;27;20196;-57
2023/09/28 01:05:33;;;;;;;19.55;18.55;;;;;;;-141.02;79.69;42194.81;5133879;27;20208;-57
2023/09/28 01:08:05;;;;;;;19.38;18.48;;;;;;;-141.02;79.14;42167.94;5134292;27;20707;-57
2023/09/28 01:10:35;;;;;;;19.20;18.30;;;;;;;-141.02;80.06;42196.72;5133897;27;20181;-57
2023/09/28 01:13:05;;;;;;;18.90;18.00;;;;;;;-141.02;80.60;42194.81;5133918;27;20672;-57
2023/09/28 01:15:35;;;;;;;19.80;18.80;;;;;;;-141.02;80.63;42219.75;5134204;27;20195;-57
2023/09/28 01:18:01;;;;;;;20.00;19.00;;;;;;;-141.02;80.89;42210.16;5134412;27;20189;-57
2023/09/28 01:20:35;;;;;;;19.70;18.80;;;;;;;-141.02;82.45;42240.88;5133951;27;20208;-57
2023/09/28 01:23:03;;;;;;;19.30;18.40;;;;;;;-141.02;82.13;42219.75;5133772;27;20231;-57
2023/09/28 01:25:30;;;;;;;19.02;18.13;;;;;;;-141.02;82.63;42229.34;5133801;27;20192;-57
2023/09/28 01:27:56;;;;;;;18.90;18.00;;;;;;;-141.02;82.31;42189.03;5133901;27;20631;-57
2023/09/28 01:30:24;;;;;;;18.83;17.92;;;;;;;-141.02;82.24;42187.13;5133858;27;20196;-57
2023/09/28 01:32:51;;;;;;;19.25;18.27;;;;;;;-141.02;82.18;42190.97;5133827;27;20252;-57
2023/09/28 01:35:19;;;;;;;18.73;17.83;;;;;;;-141.02;82.95;42202.47;5133542;27;20673;-57
2023/09/28 01:37:55;;;;;;;18.65;17.75;;;;;;;-141.02;84.50;42190.97;5133671;27;20199;-57
2023/09/28 01:40:23;;;;;;;18.38;17.48;;;;;;;-141.02;83.63;42190.97;5133787;27;20188;-66
2023/09/28 01:42:55;;;;;;;18.20;17.30;;;;;;;-141.02;84.50;42214.00;5133573;27;20294;-57
2023/09/28 01:45:22;;;;;;;18.25;17.35;;;;;;;-141.02;85.19;42196.72;5133348;27;20227;-65
2023/09/28 01:47:54;;;;;;;18.40;17.50;;;;;;;-141.02;86.78;42204.41;5133151;27;20224;-57
2023/09/28 01:50:21;;;;;;;18.10;17.20;;;;;;;-141.02;88.31;42175.59;5133191;27;20665;-62
2023/09/28 01:52:47;;;;;;;17.50;16.70;;;;;;;-141.02;87.39;41897.31;5133109;27;20253;-57
2023/09/28 01:55:14;;;;;;;17.55;16.75;;;;;;;-141.02;87.42;42144.91;5133135;27;20205;-57
2023/09/28 01:57:42;;;;;;;18.02;17.15;;;;;;;-141.02;86.73;42148.75;5133269;27;20228;-57
2023/09/28 02:00:14;;;;;;;18.30;17.40;;;;;;;-141.02;85.76;42129.53;5133401;27;20200;-57
2023/09/28 02:02:40;;;;;;;18.27;17.38;;;;;;;-141.02;84.10;42125.69;5133405;27;20188;-57
2023/09/28 02:05:08;;;;;;;18.27;17.38;;;;;;;-141.02;83.21;42133.38;5133043;27;20291;-57
2023/09/28 02:07:35;;;;;;;18.60;17.70;;;;;;;-141.02;82.78;42133.38;5132906;27;20683;-57
2023/09/28 02:10:02;;;;;;;19.08;18.17;;;;;;;-141.02;82.23;42098.84;5132974;27;20287;-57
2023/09/28 02:12:29;;;;;;;18.00;17.20;;;;;;;-141.02;82.43;42114.19;5132383;27;20203;-57
2023/09/28 02:14:58;;;;;;;18.80;17.90;;;;;;;-141.02;81.46;42123.78;5133218;28;20265;-57
2023/09/28 02:17:25;;;;;;;19.58;18.58;;;;;;;-141.02;80.48;42121.88;5133184;27;20196;-58
2023/09/28 02:19:51;;;;;;;19.50;18.50;;;;;;;-141.02;79.56;42083.47;5132911;28;20193;-57
2023/09/28 02:22:18;;;;;;;19.80;18.80;;;;;;;-141.02;78.82;42075.81;5133167;27;20539;-57
2023/09/28 02:24:45;;;;;;;19.90;18.90;;;;;;;-141.02;80.11;42098.84;5132617;28;20194;-65
2023/09/28 02:27:12;;;;;;;19.40;18.40;;;;;;;-141.02;81.12;42123.78;5133030;28;20267;-57
2023/09/28 02:29:38;;;;;;;18.95;18.05;;;;;;;-141.02;81.04;42144.91;5132764;28;20284;-57
2023/09/28 02:32:07;;;;;;;19.83;18.85;;;;;;;-141.02;79.58;42139.13;5132739;28;20245;-57
2023/09/28 02:34:33;;;;;;;19.48;18.50;;;;;;;-141.02;80.49;42125.69;5132742;28;20196;-57
2023/09/28 02:37:03;;;;;;;19.33;18.40;;;;;;;-141.02;82.00;42125.69;5132753;27;20208;-57
2023/09/28 02:39:29;;;;;;;19.20;18.30;;;;;;;-141.02;82.15;42142.97;5132752;27;20192;-57
2023/09/28 02:41:56;;;;;;;19.40;18.40;;;;;;;-141.02;82.30;42152.56;5132667;28;20199;-57
2023/09/28 02:44:23;;;;;;;19.13;18.23;;;;;;;-141.02;81.33;42164.09;5132626;28;20196;-57
2023/09/28 02:46:50;;;;;;;19.65;18.65;;;;;;;-141.02;82.33;42141.06;5132848;28;20220;-57
2023/09/28 02:49:18;;;;;;;18.67;17.77;;;;;;;-141.02;81.15;42167.94;5132926;28;20192;-57
2023/09/28 02:51:45;;;;;;;18.50;17.60;;;;;;;-141.02;81.95;42141.06;5132572;28;20682;-57
2023/09/28 02:54:11;;;;;;;18.98;18.08;;;;;;;-141.02;81.14;42137.22;5132920;27;20192;-57
2023/09/28 02:56:39;;;;;;;19.15;18.25;;;;;;;-141.02;82.32;42171.78;5132524;28;20601;-57
2023/09/28 02:59:06;;;;;;;19.35;18.35;;;;;;;-141.02;82.66;42183.28;5132466;28;20283;-57
2023/09/28 03:01:33;;;;;;;19.10;18.20;;;;;;;-141.02;83.23;42177.53;5132557;27;20283;-57
2023/09/28 03:04:00;;;;;;;19.42;18.52;;;;;;;-141.02;83.82;42187.13;5132790;28;20224;-57
2023/09/28 03:06:40;;;;;;;17.98;17.08;;;;;;;-141.02;84.95;42181.38;5132728;28;20304;-57
2023/09/28 03:09:08;;;;;;;18.35;17.45;;;;;;;-141.02;85.57;42173.69;5132430;27;20241;-57
2023/09/28 03:11:36;;;;;;;18.33;17.42;;;;;;;-141.02;86.17;42181.38;5132745;28;20204;-57
2023/09/28 03:14:03;;;;;;;18.40;17.50;;;;;;;-141.02;87.33;42181.38;5132309;28;20193;-57
2023/09/28 03:16:31;;;;;;;18.33;17.42;;;;;;;-141.02;88.52;42160.25;5132390;28;20200;-57
2023/09/28 03:18:57;;;;;;;17.83;17.02;;;;;;;-141.02;90.17;42156.41;5132657;28;20197;-57
2023/09/28 03:21:24;;;;;;;17.30;16.50;;;;;;;-141.02;90.82;42137.22;5132265;28;20296;-57
2023/09/28 03:23:52;;;;;;;17.13;16.33;;;;;;;-141.02;91.71;42110.34;5133183;27;20200;-57
2023/09/28 03:26:18;;;;;;;17.33;16.52;;;;;;;-141.02;93.00;42087.31;5136148;27;20220;-57
2023/09/28 03:28:45;;;;;;;16.40;15.70;;;;;;;-141.02;93.12;42060.44;5136837;27;20679;-56
2023/09/28 03:31:11;;;;;;;16.50;15.80;;;;;;;-141.02;93.72;42037.41;5136191;27;20271;-57
2023/09/28 03:33:38;;;;;;;16.05;15.35;;;;;;;-141.02;94.86;42025.91;5136148;27;20218;-57
2023/09/28 03:36:05;;;;;;;16.08;15.38;;;;;;;-141.02;95.91;42006.72;5136076;27;20228;-56
2023/09/28 03:38:32;;;;;;;15.82;15.18;;;;;;;-141.02;96.24;41960.66;5135970;27;20192;-57
2023/09/28 03:41:01;;;;;;;15.40;14.80;;;;;;;-141.02;96.29;41914.59;5136042;27;20327;-57
2023/09/28 03:43:29;;;;;;;15.65;15.02;;;;;;;-141.02;95.51;41906.91;5135652;27;20196;-57
2023/09/28 03:45:56;;;;;;;15.85;15.18;;;;;;;-141.02;94.58;41918.41;5135784;27;20208;-57
2023/09/28 03:48:23;;;;;;;15.68;15.07;;;;;;;-141.02;94.62;41918.41;5135818;27;20690;-57
2023/09/28 03:50:50;;;;;;;16.08;15.38;;;;;;;-141.02;91.01;41906.91;5135396;27;20249;-57
2023/09/28 03:53:17;;;;;;;16.35;15.65;;;;;;;-141.02;91.42;41922.25;5135792;27;20193;-57
2023/09/28 03:55:48;;;;;;;16.45;15.75;;;;;;;-141.02;91.82;41912.66;5135309;27;20615;-57
2023/09/28 03:58:16;;;;;;;17.10;16.30;;;;;;;-141.02;91.28;41945.28;5135457;27;20236;-57
2023/09/28 04:00:43;;;;;;;17.08;16.38;;;;;;;-141.02;89.57;41935.69;5135688;27;20249;-57
2023/09/28 04:03:11;;;;;;;17.10;16.30;;;;;;;-141.02;89.18;41952.97;5135187;27;20196;-57
2023/09/28 04:05:38;;;;;;;17.40;16.60;;;;;;;-141.02;91.81;41976.00;5135801;27;20192;-57
2023/09/28 04:08:06;;;;;;;17.30;16.50;;;;;;;-141.02;89.77;41970.25;5135324;27;20315;-57
2023/09/28 04:10:34;;;;;;;17.15;16.35;;;;;;;-141.02;90.50;41983.69;5135160;27;20196;-65
2023/09/28 04:13:02;;;;;;;17.48;16.67;;;;;;;-141.02;88.10;42027.81;5135092;27;20188;-57
2023/09/28 04:15:31;;;;;;;19.00;18.10;;;;;;;-141.02;84.71;42190.97;5134982;27;20204;-57
2023/09/28 04:17:58;;;;;;;19.00;18.10;;;;;;;-141.02;85.24;42302.28;5135247;27;20572;-57
2023/09/28 04:20:25;;;;;;;19.17;18.27;;;;;;;-141.02;83.96;42344.53;5135169;27;20299;-64
2023/09/28 04:22:52;;;;;;;19.30;18.30;;;;;;;-141.02;84.32;42369.47;5135096;27;20192;-57
2023/09/28 04:25:21;;;;;;;18.45;17.55;;;;;;;-141.02;83.07;42402.09;5135020;27;20227;-57
2023/09/28 04:27:49;;;;;;;18.13;17.23;;;;;;;-141.02;82.41;42421.28;5135067;27;20239;-57
2023/09/28 04:30:16;;;;;;;18.00;17.10;;;;;;;-141.02;82.25;42448.16;5134744;27;20242;-57
2023/09/28 04:32:45;;;;;;;18.27;17.38;;;;;;;-141.02;82.43;42471.19;5135083;27;20611;-57
2023/09/28 04:35:13;;;;;;;18.55;17.65;;;;;;;-141.02;83.73;42486.56;5134465;27;20192;-57
2023/09/28 04:37:40;;;;;;;18.98;18.08;;;;;;;-141.02;84.90;42521.13;5134823;27;20228;-57
2023/09/28 04:40:10;;;;;;;18.73;17.83;;;;;;;-141.02;84.20;42555.66;5134884;27;20241;-57
2023/09/28 04:42:38;;;;;;;19.17;18.27;;;;;;;-141.02;83.43;42546.06;5134540;27;20188;-57
2023/09/28 04:45:06;;;;;;;19.00;18.10;;;;;;;-141.02;83.26;42576.78;5134387;27;20208;-57
2023/09/28 04:47:33;;;;;;;19.00;18.10;;;;;;;-141.02;83.00;42576.78;5134603;27;20227;-57
2023/09/28 04:50:03;;;;;;;19.00;18.10;;;;;;;-141.02;85.13;42572.94;5134926;27;20223;-57
2023/09/28 04:52:30;;;;;;;19.10;18.20;;;;;;;-141.02;86.14;42605.56;5134339;27;20185;-57
2023/09/28 04:54:57;;;;;;;18.70;17.80;;;;;;;-141.02;85.48;42617.09;5134591;27;20193;-57
2023/09/28 04:57:25;;;;;;;18.65;17.75;;;;;;;-141.02;86.54;42617.09;5134104;27;20267;-65
2023/09/28 04:59:53;;;;;;;18.67;17.77;;;;;;;-141.02;85.50;42636.28;5134105;27;20193;-57
2023/09/28 05:02:20;;;;;;;18.83;17.92;;;;;;;-141.02;85.35;42640.13;5134437;27;20242;-57
2023/09/28 05:04:47;;;;;;;18.45;17.55;;;;;;;-141.02;84.40;42657.41;5134029;27;20203;-57
2023/09/28 05:07:16;;;;;;;19.00;18.10;;;;;;;-141.02;84.31;42613.25;5134282;27;20274;-57
2023/09/28 05:09:44;;;;;;;17.98;17.17;;;;;;;-141.02;83.88;42613.25;5134271;27;20623;-57
2023/09/28 05:31:01;;;;;;;19.58;18.63;;;;;;;-141.02;80.09;42663.16;5130902;27;20906;-65
2023/09/28 05:33:28;;;;;;;19.05;18.15;;;;;;;-141.02;80.54;42667.00;5130683;27;20196;-64
2023/09/28 05:35:55;;;;;;;19.05;18.15;;;;;;;-141.02;80.46;42640.13;5130396;27;20673;-58
2023/09/28 05:38:22;;;;;;;19.63;18.73;;;;;;;-141.02;79.77;42659.31;5130074;27;20199;-58
2023/09/28 05:40:49;;;;;;;19.30;18.40;;;;;;;-141.02;79.64;42638.22;5130420;27;20196;-64
2023/09/28 05:43:15;;;;;;;19.25;18.35;;;;;;;-141.02;79.72;42682.34;5130098;27;20253;-58
2023/09/28 05:45:42;;;;;;;19.40;18.50;;;;;;;-141.02;79.74;42686.19;5130346;27;20218;-64
2023/09/28 05:48:11;;;;;;;19.27;18.48;;;;;;;-141.02;80.11;42699.63;5129936;27;20229;-58
2023/09/28 05:50:38;;;;;;;19.38;18.48;;;;;;;-141.02;79.47;42640.13;5130269;27;20224;-63
2023/09/28 05:53:05;;;;;;;19.20;18.30;;;;;;;-141.02;78.92;42448.16;5129799;27;20192;-58
2023/09/28 05:55:32;;;;;;;18.92;18.02;;;;;;;-141.02;77.73;42674.69;5130076;27;20192;-62
2023/09/28 05:57:59;;;;;;;19.17;18.27;;;;;;;-141.02;77.64;42672.75;5129875;27;20246;-62
2023/09/28 06:00:26;;;;;;;19.42;18.52;;;;;;;-141.02;78.08;42651.66;5130049;27;20600;-58
2023/09/28 06:02:53;;;;;;;19.40;18.50;;;;;;;-141.02;77.54;42688.13;5130008;27;20575;-59
2023/09/28 06:05:21;;;;;;;18.25;17.45;;;;;;;-141.02;76.89;42659.31;5129910;27;20254;-62
2023/09/28 06:07:48;;;;;;;19.35;18.45;;;;;;;-141.02;76.39;42647.81;5129934;27;20192;-59
2023/09/28 06:10:15;;;;;;;19.38;18.48;;;;;;;-141.02;76.25;42670.84;5129533;27;20197;-60
2023/09/28 06:12:42;;;;;;;19.25;18.35;;;;;;;-141.02;75.18;42649.72;5129527;27;20193;-61
2023/09/28 06:15:10;;;;;;;19.17;18.27;;;;;;;-141.02;76.09;42651.66;5129780;27;20193;-60
2023/09/28 06:17:37;;;;;;;19.13;18.23;;;;;;;-141.02;76.01;42628.63;5129324;27;20287;-64
2023/09/28 06:20:07;;;;;;;18.42;17.52;;;;;;;-141.02;75.79;42647.81;5129271;27;20220;-59
2023/09/28 06:22:35;;;;;;;18.33;17.42;;;;;;;-141.02;75.67;42607.50;5129588;27;20192;-59
2023/09/28 06:25:02;;;;;;;18.08;17.17;;;;;;;-141.02;75.64;42643.97;5129299;27;20706;-62
2023/09/28 06:27:30;;;;;;;18.15;17.25;;;;;;;-141.02;75.31;42636.28;5129157;27;20196;-58
2023/09/28 06:29:57;;;;;;;18.05;17.20;;;;;;;-141.02;75.53;42628.63;5126553;27;20323;-60
2023/09/28 06:32:24;;;;;;;19.05;18.15;;;;;;;-141.02;75.31;42643.97;5115376;28;20284;-62
2023/09/28 06:34:51;;;;;;;18.88;17.98;;;;;;;-141.02;75.07;42622.84;5115695;28;20250;-61
2023/09/28 06:37:18;;;;;;;19.13;18.23;;;;;;;-141.02;75.21;42607.50;5115717;28;20204;-58
2023/09/28 06:39:47;;;;;;;18.80;17.90;;;;;;;-141.02;75.27;42624.78;5115208;28;20316;-64
2023/09/28 06:42:14;;;;;;;19.10;18.20;;;;;;;-141.02;75.96;42595.97;5115315;28;20197;-60
2023/09/28 06:44:41;;;;;;;18.88;17.98;;;;;;;-141.02;76.08;42651.66;5115201;28;20254;-61
2023/09/28 06:47:08;;;;;;;19.23;18.33;;;;;;;-141.02;77.05;42643.97;5115084;28;20659;-64
2023/09/28 06:49:36;;;;;;;19.15;18.25;;;;;;;-141.02;76.70;42615.16;5115147;28;20197;-59
2023/09/28 06:52:03;;;;;;;18.80;17.90;;;;;;;-141.02;77.00;42611.34;5115093;28;20201;-64
2023/09/28 06:54:31;;;;;;;18.58;17.67;;;;;;;-141.02;76.14;42617.09;5115296;28;20272;-61
2023/09/28 06:57:00;;;;;;;18.85;17.95;;;;;;;-141.02;75.58;42634.38;5115008;28;20193;-66
2023/09/28 06:59:28;;;;;;;18.70;17.80;;;;;;;-141.02;75.23;42682.34;5115155;28;20235;-63
2023/09/28 07:01:54;;;;;;;18.55;17.65;;;;;;;-141.02;75.03;42651.66;5115194;28;20192;-61
2023/09/28 07:04:22;;;;;;;19.15;18.25;;;;;;;-141.02;74.10;42605.56;5115195;28;20221;-63
2023/09/28 07:06:49;;;;;;;19.08;18.17;;;;;;;-141.02;73.15;42597.91;5115077;28;20258;-62
2023/09/28 07:09:16;;;;;;;19.20;18.20;;;;;;;-141.02;72.83;42609.41;5114989;28;20207;-65
2023/09/28 07:11:43;;;;;;;19.02;18.02;;;;;;;-141.02;71.73;42597.91;5114688;28;20193;-66
2023/09/28 07:14:13;;;;;;;19.17;18.17;;;;;;;-141.02;72.43;42620.94;5114952;28;20197;-65
2023/09/28 07:16:40;;;;;;;19.27;18.27;;;;;;;-141.02;72.98;42620.94;5114626;28;20194;-63
2023/09/28 07:19:07;;;;;;;18.60;17.70;;;;;;;-141.02;71.96;42595.97;5114763;28;20305;-59
2023/09/28 07:21:33;;;;;;;19.30;18.30;;;;;;;-141.02;71.28;42609.41;5114429;28;20289;-65
2023/09/28 07:24:01;;;;;;;19.25;18.25;;;;;;;-141.02;69.61;42548.00;5114788;28;20225;-65
2023/09/28 07:26:28;;;;;;;18.95;17.95;;;;;;;-141.02;71.08;42571.03;5114684;28;20225;-64
2023/09/28 07:28:55;;;;;;;19.20;18.20;;;;;;;-141.02;70.48;42657.41;5114461;28;20678;-65
2023/09/28 07:31:24;;;;;;;19.08;18.08;;;;;;;-141.02;69.74;42645.88;5114654;28;20181;-66
2023/09/28 07:33:51;;;;;;;18.98;17.98;;;;;;;-141.02;69.86;42611.34;5114486;28;20284;-58
2023/09/28 07:36:18;;;;;;;18.65;17.75;;;;;;;-141.02;67.35;42452.00;5114569;28;20242;-65
2023/09/28 07:38:47;;;;;;;19.17;18.17;;;;;;;-141.02;68.43;42661.25;5114010;28;20199;-65
2023/09/28 07:41:14;;;;;;;18.88;17.90;;;;;;;-141.02;68.68;42555.66;5114082;28;20193;-65
2023/09/28 07:43:41;;;;;;;19.13;18.23;;;;;;;-141.02;67.65;42492.31;5113413;28;20276;-66
2023/09/28 07:46:08;;;;;;;18.23;17.33;;;;;;;-141.02;68.06;42517.28;5114296;28;20269;-67
2023/09/28 07:48:36;;;;;;;18.45;17.50;;;;;;;-141.02;68.52;42544.16;5114195;28;20196;-65
2023/09/28 07:51:03;;;;;;;18.92;17.92;;;;;;;-141.02;68.32;42682.34;5113845;28;20624;-67
2023/09/28 07:53:31;;;;;;;18.83;17.83;;;;;;;-141.02;68.26;42651.66;5114144;28;20235;-63
2023/09/28 07:55:58;;;;;;;18.60;17.60;;;;;;;-141.02;68.08;42663.16;5113723;28;20659;-66
2023/09/28 07:58:25;;;;;;;18.45;17.45;;;;;;;-141.02;66.10;42647.81;5113808;28;20233;-65
2023/09/28 08:00:52;;;;;;;18.60;17.60;;;;;;;-141.02;66.51;42634.38;5113576;28;20315;-65
2023/09/28 08:03:19;;;;;;;18.58;17.58;;;;;;;-141.02;67.14;42663.16;5113875;28;20189;-66
2023/09/28 08:05:47;;;;;;;18.50;17.50;;;;;;;-141.02;67.99;42705.41;5113917;28;20228;-64
2023/09/28 08:08:15;;;;;;;17.50;16.70;;;;;;;-141.02;67.29;42628.63;5113465;28;20627;-69
2023/09/28 08:10:42;;;;;;;17.83;16.92;;;;;;;-141.02;67.81;42651.66;5113477;28;20232;-67
2023/09/28 08:13:09;;;;;;;17.98;17.08;;;;;;;-141.02;68.22;42619.00;5113853;28;20193;-65
2023/09/28 08:15:36;;;;;;;17.80;16.90;;;;;;;-141.02;68.53;42667.00;5113732;28;20190;-65
2023/09/28 08:18:03;;;;;;;17.40;16.60;;;;;;;-141.02;68.41;42739.94;5113430;28;20189;-65
2023/09/28 08:20:33;;;;;;;18.02;17.13;;;;;;;-141.02;68.76;42643.97;5113456;28;20285;-66
2023/09/28 08:23:01;;;;;;;17.77;16.88;;;;;;;-141.02;68.00;42707.31;5113572;27;20271;-66
2023/09/28 08:25:29;;;;;;;18.38;17.38;;;;;;;-141.02;67.02;42603.66;5113528;28;20300;-69
2023/09/28 08:27:57;;;;;;;17.58;16.67;;;;;;;-141.02;67.47;42768.75;5113564;28;20597;-67
2023/09/28 08:30:24;;;;;;;17.85;16.95;;;;;;;-141.02;66.64;42590.22;5113010;28;20282;-67
2023/09/28 08:32:51;;;;;;;17.67;16.77;;;;;;;-141.02;66.97;42782.19;5112995;28;20192;-64
2023/09/28 08:35:18;;;;;;;17.67;16.77;;;;;;;-141.02;66.41;42613.25;5113072;28;20196;-67
2023/09/28 08:37:45;;;;;;;17.60;16.70;;;;;;;-141.02;67.33;42655.47;5113069;28;20655;-67
2023/09/28 08:40:14;;;;;;;17.40;16.50;;;;;;;-141.02;67.23;42667.00;5113948;28;20285;-64
2023/09/28 08:42:43;;;;;;;17.48;16.58;;;;;;;-141.02;67.57;42786.03;5112865;28;20197;-64
2023/09/28 08:45:14;;;;;;;17.15;16.33;;;;;;;-141.02;67.20;42715.00;5113205;28;20193;-68
2023/09/28 08:47:47;;;;;;;17.35;16.45;;;;;;;-141.02;66.80;42676.59;5113243;28;20628;-61
2023/09/28 08:50:18;;;;;;;17.48;16.58;;;;;;;-141.02;64.71;42738.03;5113182;28;20189;-61
2023/09/28 08:52:46;;;;;;;17.73;16.83;;;;;;;-141.02;65.10;42701.56;5112949;28;20250;-58
2023/09/28 08:55:17;;;;;;;17.50;16.60;;;;;;;-141.02;64.32;42789.88;5112813;28;20197;-58
2023/09/28 08:57:44;;;;;;;17.52;16.63;;;;;;;-141.02;64.39;42793.69;5112741;28;20189;-62
2023/09/28 09:00:14;;;;;;;17.60;16.70;;;;;;;-141.02;65.09;42780.25;5112480;28;20256;-62
2023/09/28 09:02:43;;;;;;;17.33;16.42;;;;;;;-141.02;64.29;42759.16;5112584;28;20199;-62
2023/09/28 09:05:12;;;;;;;17.73;16.83;;;;;;;-141.02;63.36;42739.94;5112922;28;20208;-60
2023/09/28 09:07:41;;;;;;;17.60;16.70;;;;;;;-141.02;63.87;42778.34;5112649;28;20208;-67
2023/09/28 09:10:12;;;;;;;17.33;16.42;;;;;;;-141.02;63.87;42690.03;5112564;28;20275;-64
2023/09/28 09:12:40;;;;;;;17.30;16.40;;;;;;;-141.02;64.29;42678.53;5112670;28;20231;-59
2023/09/28 09:15:09;;;;;;;17.13;16.23;;;;;;;-141.02;64.79;42755.31;5112818;28;20189;-59
2023/09/28 09:17:37;;;;;;;17.42;16.52;;;;;;;-141.02;65.39;42716.91;5112758;28;20193;-64
2023/09/28 09:20:08;;;;;;;17.48;16.58;;;;;;;-141.02;66.38;42761.06;5113218;28;20277;-59
2023/09/28 09:22:36;;;;;;;17.25;16.35;;;;;;;-141.02;67.38;42734.19;5112643;28;20241;-68
2023/09/28 09:25:03;;;;;;;17.23;16.33;;;;;;;-141.02;66.25;42626.69;5112422;28;20201;-61
2023/09/28 09:27:31;;;;;;;17.25;16.35;;;;;;;-141.02;67.67;42703.47;5112304;28;20205;-63
2023/09/28 09:30:05;;;;;;;16.95;16.15;;;;;;;-141.02;67.49;42628.63;5112287;28;20316;-63
2023/09/28 09:32:32;;;;;;;17.05;16.15;;;;;;;-141.02;68.51;42659.31;5112634;28;20189;-59
2023/09/28 09:35:00;;;;;;;17.27;16.38;;;;;;;-141.02;68.80;42668.94;5112327;28;20284;-62
2023/09/28 09:37:27;;;;;;;17.02;16.20;;;;;;;-141.02;69.57;42651.66;5112678;28;20193;-67
2023/09/28 09:40:10;;;;;;;16.75;15.95;;;;;;;-141.02;69.70;42747.63;5112496;28;20597;-62
2023/09/28 09:42:37;;;;;;;16.80;16.00;;;;;;;-141.02;69.28;42747.63;5112308;28;20208;-65
2023/09/28 09:45:07;;;;;;;17.00;16.20;;;;;;;-141.02;68.58;42697.72;5112139;28;20193;-67
2023/09/28 09:47:35;;;;;;;17.35;16.45;;;;;;;-141.02;67.81;42605.56;5112179;28;20189;-63
2023/09/28 09:50:02;;;;;;;16.95;16.13;;;;;;;-141.02;67.57;42693.88;5112153;28;20200;-63
2023/09/28 09:52:30;;;;;;;17.02;16.13;;;;;;;-141.02;65.56;42734.19;5112779;28;20204;-60
2023/09/28 09:54:57;;;;;;;16.75;15.95;;;;;;;-141.02;65.93;42770.66;5112111;28;20717;-63
2023/09/28 09:57:27;;;;;;;16.63;15.73;;;;;;;-141.02;66.50;42743.78;5112434;28;20690;-62
2023/09/28 09:59:54;;;;;;;17.30;16.40;;;;;;;-141.02;66.64;42739.94;5112015;28;20623;-64
2023/09/28 10:02:26;;;;;;;17.38;16.48;;;;;;;-141.02;65.94;42732.28;5112300;28;20292;-59
2023/09/28 10:04:55;;;;;;;17.17;16.38;;;;;;;-141.02;65.27;42738.03;5112148;28;20537;-67
2023/09/28 10:07:29;;;;;;;17.15;16.35;;;;;;;-141.02;64.80;42561.41;5116059;28;20311;-62
2023/09/28 10:09:57;;;;;;;17.45;16.55;;;;;;;-141.02;62.73;42448.16;5116232;28;20207;-61
2023/09/28 10:12:26;;;;;;;17.60;16.70;;;;;;;-141.02;64.94;42753.38;5115790;28;20670;-63
2023/09/28 10:14:56;;;;;;;17.38;16.48;;;;;;;-141.02;66.53;42739.94;5116055;28;20192;-60
2023/09/28 10:17:27;;;;;;;17.13;16.23;;;;;;;-141.02;67.03;42705.41;5115973;28;20197;-60
2023/09/28 10:19:56;;;;;;;17.10;16.20;;;;;;;-141.02;66.29;42718.84;5115923;28;20267;-60
2023/09/28 10:22:23;;;;;;;17.13;16.33;;;;;;;-141.02;66.21;42571.03;5116147;28;20275;-66
2023/09/28 10:24:50;;;;;;;17.15;16.35;;;;;;;-141.02;66.07;42653.56;5115927;28;20280;-61
2023/09/28 10:27:18;;;;;;;17.33;16.42;;;;;;;-141.02;65.84;42720.75;5115877;28;20283;-64
2023/09/28 10:29:45;;;;;;;17.15;16.35;;;;;;;-141.02;65.88;42728.44;5115190;28;20261;-61
2023/09/28 10:32:28;;;;;;;17.30;16.45;;;;;;;-141.02;64.54;42697.72;5115752;28;20270;-63
2023/09/28 10:35:24;;;;;;;17.35;16.48;;;;;;;-141.02;64.86;42701.56;5115389;28;20272;-65
2023/09/28 10:38:21;;;;;;;17.23;16.42;;;;;;;-141.02;64.14;42720.75;5115637;28;20225;-63
2023/09/28 10:41:04;;;;;;;17.08;16.27;;;;;;;-141.02;64.83;42622.84;5115536;28;20292;-64
2023/09/28 10:43:32;;;;;;;16.17;15.38;;;;;;;-141.02;65.68;42488.47;5115232;28;20185;-68
2023/09/28 10:46:05;;;;;;;16.27;15.48;;;;;;;-141.02;67.65;42517.28;5115142;28;20705;-60
2023/09/28 10:48:39;;;;;;;16.38;15.57;;;;;;;-141.02;68.07;42747.63;5115538;28;20185;-64
2023/09/28 10:51:11;;;;;;;16.17;15.38;;;;;;;-141.02;67.65;42594.06;5115100;28;20203;-65
2023/09/28 10:53:38;;;;;;;16.65;15.85;;;;;;;-141.02;68.00;42766.81;5115020;28;20186;-60
2023/09/28 10:56:07;;;;;;;16.70;15.90;;;;;;;-141.02;67.41;42624.78;5113597;28;20273;-60
2023/09/28 10:58:35;;;;;;;16.60;15.73;;;;;;;-141.02;66.75;42801.38;5115004;28;20283;-62
2023/09/28 11:01:06;;;;;;;16.52;15.73;;;;;;;-141.02;65.90;42774.50;5114814;27;20225;-61
2023/09/28 11:03:36;;;;;;;17.20;16.30;;;;;;;-141.02;65.73;42638.22;5114880;28;20192;-63
2023/09/28 11:06:09;;;;;;;17.25;16.35;;;;;;;-141.02;65.88;42693.88;5115347;28;20225;-62
2023/09/28 11:08:37;;;;;;;17.50;16.60;;;;;;;-141.02;66.79;42605.56;5114828;28;20190;-64
2023/09/28 11:11:04;;;;;;;17.40;16.50;;;;;;;-141.02;66.24;42574.88;5114742;28;20200;-65
2023/09/28 11:13:32;;;;;;;17.02;16.23;;;;;;;-141.02;66.26;42513.44;5114969;28;20193;-63
2023/09/28 11:16:00;;;;;;;17.15;16.35;;;;;;;-141.02;65.28;42770.66;5114865;27;20201;-67
2023/09/28 11:18:28;;;;;;;17.15;16.25;;;;;;;-141.02;63.80;42549.91;5114806;28;20221;-62
2023/09/28 11:20:57;;;;;;;17.02;16.13;;;;;;;-141.02;63.61;42559.50;5114442;28;20320;-61
2023/09/28 11:23:24;;;;;;;17.20;16.30;;;;;;;-141.02;64.88;42655.47;5114794;28;20658;-68
2023/09/28 11:25:51;;;;;;;17.67;16.77;;;;;;;-141.02;65.16;42778.34;5114718;28;20201;-64
2023/09/28 11:28:19;;;;;;;17.75;16.85;;;;;;;-141.02;64.27;42536.47;5114704;28;20201;-63